FIN479 EFHK-VTSP
Flight info
| Callsign | FIN479 |
|---|---|
| Flight time | N/A |
| Altitude | 36000 |
| Route | KOIVU Y123 LARTI DCT ORTAX DCT LUTAL P870 BERIL/N0489F370 DCT BOKSU/N0486F360 DCT TOXAR DCT ROBTU/N0480F370 DCT KENIN DCT DINRO DCT UDROS DCT CRM/N0480F390 UM11 REBLO DCT TABAS DCT MATAL M11 LUSAL N701 LARGI B701 KRS A240 INRAK B449 DOLOS B475 RUBAD A846 RANAH L750 BINDO/N0485F410 L750 MERUN L333 KKJ L759 SATVA SATVA1D |
| Aircraft | A359/H-SDE2E3GHIJ3J4J5LM1ORWXY/LB1D1 |
Departure
| Time | 2026-04-25 05:46 |
|---|---|
| Airport | Helsinki Vantaa Airport (EFHK) |
Arrival
| Time | N/A |
|---|---|
| Airport | Phuket International Airport (VTSP) |
| Time | Latitude | Longitude | Altitude | Speed | Heading |
|---|---|---|---|---|---|
| 2026-04-25 04:51 | 60.31460 | 24.95621 | 168 ft | 0 kts | 138° |
| 2026-04-25 05:32 | 60.31465 | 24.95612 | 167 ft | 3 kts | 137° |
| 2026-04-25 05:32 | 60.31479 | 24.95582 | 185 ft | 3 kts | 130° |
| 2026-04-25 05:33 | 60.31492 | 24.95549 | 167 ft | 3 kts | 120° |
| 2026-04-25 05:33 | 60.31501 | 24.95512 | 167 ft | 3 kts | 103° |
| 2026-04-25 05:33 | 60.31502 | 24.95474 | 167 ft | 3 kts | 68° |
| 2026-04-25 05:33 | 60.31498 | 24.95456 | 167 ft | 4 kts | 48° |
| 2026-04-25 05:39 | 60.31498 | 24.95457 | 167 ft | 1 kts | 48° |
| 2026-04-25 05:39 | 60.31518 | 24.95502 | 167 ft | 6 kts | 48° |
| 2026-04-25 05:39 | 60.31549 | 24.95567 | 167 ft | 7 kts | 46° |
| 2026-04-25 05:39 | 60.31590 | 24.95642 | 167 ft | 8 kts | 31° |
| 2026-04-25 05:40 | 60.31646 | 24.95631 | 167 ft | 10 kts | 330° |
| 2026-04-25 05:40 | 60.31710 | 24.95552 | 167 ft | 10 kts | 347° |
| 2026-04-25 05:40 | 60.31771 | 24.95617 | 168 ft | 11 kts | 45° |
| 2026-04-25 05:40 | 60.31825 | 24.95735 | 167 ft | 12 kts | 47° |
| 2026-04-25 05:41 | 60.31887 | 24.95867 | 168 ft | 14 kts | 46° |
| 2026-04-25 05:41 | 60.31967 | 24.95944 | 168 ft | 13 kts | 344° |
| 2026-04-25 05:41 | 60.32036 | 24.95832 | 169 ft | 13 kts | 319° |
| 2026-04-25 05:41 | 60.32104 | 24.95707 | 168 ft | 14 kts | 317° |
| 2026-04-25 05:42 | 60.32183 | 24.95562 | 167 ft | 16 kts | 317° |
| 2026-04-25 05:42 | 60.32267 | 24.95405 | 167 ft | 17 kts | 317° |
| 2026-04-25 05:42 | 60.32364 | 24.95261 | 167 ft | 18 kts | 335° |
| 2026-04-25 05:42 | 60.32482 | 24.95180 | 167 ft | 19 kts | 341° |
| 2026-04-25 05:43 | 60.32610 | 24.95096 | 167 ft | 20 kts | 342° |
| 2026-04-25 05:43 | 60.32742 | 24.95013 | 167 ft | 21 kts | 343° |
| 2026-04-25 05:43 | 60.32862 | 24.94931 | 167 ft | 7 kts | 339° |
| 2026-04-25 05:43 | 60.32909 | 24.94877 | 167 ft | 8 kts | 321° |
| 2026-04-25 05:44 | 60.32955 | 24.94793 | 167 ft | 10 kts | 317° |
| 2026-04-25 05:44 | 60.33008 | 24.94698 | 168 ft | 11 kts | 319° |
| 2026-04-25 05:44 | 60.33063 | 24.94598 | 169 ft | 11 kts | 317° |
| 2026-04-25 05:44 | 60.33102 | 24.94518 | 174 ft | 4 kts | 307° |
| 2026-04-25 05:45 | 60.33110 | 24.94485 | 177 ft | 4 kts | 293° |
| 2026-04-25 05:45 | 60.33108 | 24.94389 | 179 ft | 6 kts | 247° |
| 2026-04-25 05:45 | 60.33095 | 24.94347 | 180 ft | 2 kts | 230° |
| 2026-04-25 05:45 | 60.33062 | 24.94274 | 182 ft | 29 kts | 227° |
| 2026-04-25 05:46 | 60.32774 | 24.93640 | 180 ft | 93 kts | 227° |
| 2026-04-25 05:46 | 60.32206 | 24.92389 | 168 ft | 147 kts | 227° |
| 2026-04-25 05:46 | 60.31441 | 24.90733 | 505 ft | 167 kts | 225° |
| 2026-04-25 05:46 | 60.30694 | 24.88998 | 1354 ft | 158 kts | 235° |
| 2026-04-25 05:47 | 60.30058 | 24.87142 | 1858 ft | 167 kts | 238° |
| 2026-04-25 05:47 | 60.29381 | 24.85068 | 2081 ft | 188 kts | 238° |
| 2026-04-25 05:47 | 60.28619 | 24.82730 | 2265 ft | 211 kts | 238° |
| 2026-04-25 05:47 | 60.27764 | 24.80122 | 2547 ft | 231 kts | 238° |
| 2026-04-25 05:48 | 60.26904 | 24.77376 | 3080 ft | 237 kts | 243° |
| 2026-04-25 05:48 | 60.26227 | 24.74332 | 3744 ft | 239 kts | 250° |
| 2026-04-25 05:48 | 60.25622 | 24.71227 | 4465 ft | 238 kts | 250° |
| 2026-04-25 05:48 | 60.25012 | 24.68114 | 5120 ft | 240 kts | 249° |
| 2026-04-25 05:49 | 60.24140 | 24.65205 | 5762 ft | 247 kts | 232° |
| 2026-04-25 05:49 | 60.22727 | 24.63158 | 6372 ft | 259 kts | 207° |
| 2026-04-25 05:49 | 60.20919 | 24.62500 | 7041 ft | 271 kts | 186° |
| 2026-04-25 05:49 | 60.19015 | 24.62665 | 7737 ft | 275 kts | 182° |
| 2026-04-25 05:50 | 60.17099 | 24.62933 | 8482 ft | 276 kts | 182° |
| 2026-04-25 05:50 | 60.15171 | 24.63186 | 9221 ft | 278 kts | 182° |
| 2026-04-25 05:50 | 60.13223 | 24.63420 | 9793 ft | 285 kts | 182° |
| 2026-04-25 05:50 | 60.11180 | 24.63643 | 10076 ft | 303 kts | 182° |
| 2026-04-25 05:51 | 60.09014 | 24.63874 | 10341 ft | 320 kts | 182° |
| 2026-04-25 05:51 | 60.07516 | 24.64034 | 10505 ft | 332 kts | 182° |
| 2026-04-25 05:51 | 60.05149 | 24.64287 | 10756 ft | 348 kts | 182° |
| 2026-04-25 05:51 | 60.01851 | 24.64644 | 11146 ft | 366 kts | 182° |
| 2026-04-25 05:52 | 60.00123 | 24.64833 | 11498 ft | 370 kts | 181° |
| 2026-04-25 05:52 | 59.97536 | 24.65118 | 12125 ft | 374 kts | 182° |
| 2026-04-25 05:52 | 59.94928 | 24.65402 | 12764 ft | 377 kts | 182° |
| 2026-04-25 05:52 | 59.92298 | 24.65686 | 13377 ft | 380 kts | 182° |
| 2026-04-25 05:53 | 59.89644 | 24.65969 | 13868 ft | 385 kts | 181° |
| 2026-04-25 05:53 | 59.86950 | 24.66252 | 14311 ft | 390 kts | 181° |
| 2026-04-25 05:53 | 59.84242 | 24.66221 | 14911 ft | 388 kts | 191° |
| 2026-04-25 05:53 | 59.81575 | 24.65442 | 15519 ft | 387 kts | 195° |
| 2026-04-25 05:54 | 59.78935 | 24.64304 | 16093 ft | 388 kts | 198° |
| 2026-04-25 05:54 | 59.76339 | 24.63014 | 16685 ft | 391 kts | 199° |
| 2026-04-25 05:54 | 59.71029 | 24.60293 | 17904 ft | 397 kts | 199° |
| 2026-04-25 05:55 | 59.68338 | 24.58958 | 18419 ft | 401 kts | 199° |
| 2026-04-25 05:55 | 59.65617 | 24.57661 | 18924 ft | 405 kts | 198° |
| 2026-04-25 05:55 | 59.62837 | 24.56590 | 19433 ft | 409 kts | 195° |
| 2026-04-25 05:55 | 59.59995 | 24.55697 | 19931 ft | 413 kts | 194° |
| 2026-04-25 05:56 | 59.57141 | 24.54871 | 20435 ft | 416 kts | 193° |
| 2026-04-25 05:56 | 59.54260 | 24.54039 | 20946 ft | 419 kts | 194° |
| 2026-04-25 05:56 | 59.51366 | 24.53177 | 21427 ft | 422 kts | 194° |
| 2026-04-25 05:56 | 59.48452 | 24.52280 | 21909 ft | 425 kts | 194° |
| 2026-04-25 05:57 | 59.45517 | 24.51355 | 22408 ft | 429 kts | 195° |
| 2026-04-25 05:57 | 59.42556 | 24.50409 | 22900 ft | 432 kts | 195° |
| 2026-04-25 05:57 | 59.39581 | 24.49454 | 23339 ft | 435 kts | 195° |
| 2026-04-25 05:57 | 59.36579 | 24.48490 | 23793 ft | 438 kts | 195° |
| 2026-04-25 05:58 | 59.33559 | 24.47523 | 24241 ft | 440 kts | 195° |
| 2026-04-25 05:58 | 59.30564 | 24.46568 | 24669 ft | 443 kts | 195° |
| 2026-04-25 05:58 | 59.27479 | 24.45587 | 25091 ft | 445 kts | 195° |
| 2026-04-25 05:58 | 59.24409 | 24.44613 | 25499 ft | 448 kts | 195° |
| 2026-04-25 05:59 | 59.21361 | 24.43648 | 25918 ft | 450 kts | 195° |
| 2026-04-25 05:59 | 59.18252 | 24.42666 | 26304 ft | 453 kts | 195° |
| 2026-04-25 05:59 | 59.15123 | 24.41676 | 26625 ft | 457 kts | 194° |
| 2026-04-25 05:59 | 59.11967 | 24.40681 | 27036 ft | 460 kts | 194° |
| 2026-04-25 06:00 | 59.08798 | 24.39687 | 27464 ft | 462 kts | 194° |
| 2026-04-25 06:00 | 59.05612 | 24.38689 | 27886 ft | 464 kts | 194° |
| 2026-04-25 06:00 | 59.02415 | 24.37689 | 28207 ft | 467 kts | 194° |
| 2026-04-25 06:00 | 58.99200 | 24.36684 | 28543 ft | 469 kts | 194° |
| 2026-04-25 06:01 | 58.95959 | 24.35673 | 28889 ft | 472 kts | 194° |
| 2026-04-25 06:01 | 58.92714 | 24.34663 | 29218 ft | 474 kts | 194° |
| 2026-04-25 06:01 | 58.89445 | 24.33647 | 29550 ft | 476 kts | 194° |
| 2026-04-25 06:01 | 58.86162 | 24.32630 | 29863 ft | 477 kts | 194° |
| 2026-04-25 06:02 | 58.82891 | 24.31580 | 30214 ft | 476 kts | 196° |
| 2026-04-25 06:02 | 58.79695 | 24.30297 | 30554 ft | 474 kts | 198° |
| 2026-04-25 06:02 | 58.76483 | 24.28841 | 30860 ft | 474 kts | 199° |
| 2026-04-25 06:02 | 58.73278 | 24.27333 | 31124 ft | 474 kts | 199° |
| 2026-04-25 06:03 | 58.70064 | 24.25829 | 31361 ft | 476 kts | 199° |
| 2026-04-25 06:03 | 58.66837 | 24.24349 | 31655 ft | 477 kts | 198° |
| 2026-04-25 06:03 | 58.63593 | 24.22895 | 31969 ft | 477 kts | 198° |
| 2026-04-25 06:03 | 58.60353 | 24.21467 | 32271 ft | 477 kts | 198° |
| 2026-04-25 06:04 | 58.57107 | 24.20053 | 32555 ft | 478 kts | 198° |
| 2026-04-25 06:04 | 58.53901 | 24.18665 | 32819 ft | 478 kts | 198° |
| 2026-04-25 06:04 | 58.50653 | 24.17264 | 33094 ft | 478 kts | 198° |
| 2026-04-25 06:04 | 58.47404 | 24.15864 | 33352 ft | 479 kts | 198° |
| 2026-04-25 06:05 | 58.44154 | 24.14465 | 33553 ft | 480 kts | 198° |
| 2026-04-25 06:05 | 58.40886 | 24.13059 | 33732 ft | 482 kts | 198° |
| 2026-04-25 06:05 | 58.37618 | 24.11655 | 33949 ft | 482 kts | 198° |
| 2026-04-25 06:05 | 58.34352 | 24.10255 | 34181 ft | 481 kts | 198° |
| 2026-04-25 06:06 | 58.31084 | 24.08857 | 34368 ft | 482 kts | 198° |
| 2026-04-25 06:06 | 58.27809 | 24.07459 | 34554 ft | 482 kts | 198° |
| 2026-04-25 06:06 | 58.24533 | 24.06062 | 34731 ft | 482 kts | 198° |
| 2026-04-25 06:06 | 58.21255 | 24.04667 | 34915 ft | 483 kts | 198° |
| 2026-04-25 06:07 | 58.17971 | 24.03272 | 35051 ft | 483 kts | 198° |
| 2026-04-25 06:07 | 58.14688 | 24.01879 | 35187 ft | 484 kts | 198° |
| 2026-04-25 06:07 | 58.11395 | 24.00485 | 35352 ft | 484 kts | 198° |
| 2026-04-25 06:07 | 58.08108 | 23.99097 | 35522 ft | 485 kts | 198° |
| 2026-04-25 06:08 | 58.01536 | 23.96327 | 35636 ft | 490 kts | 198° |
| 2026-04-25 06:08 | 57.94851 | 23.93519 | 35645 ft | 493 kts | 198° |
| 2026-04-25 06:09 | 57.88152 | 23.90741 | 35635 ft | 493 kts | 197° |
| 2026-04-25 06:09 | 57.81395 | 23.88428 | 35642 ft | 494 kts | 194° |
| 2026-04-25 06:10 | 57.74598 | 23.86315 | 35644 ft | 494 kts | 194° |
| 2026-04-25 06:10 | 57.67819 | 23.84155 | 35650 ft | 494 kts | 195° |
| 2026-04-25 06:11 | 57.61038 | 23.81957 | 35629 ft | 494 kts | 195° |
| 2026-04-25 06:11 | 57.54250 | 23.79750 | 35655 ft | 495 kts | 195° |
| 2026-04-25 06:12 | 57.47459 | 23.77548 | 35655 ft | 495 kts | 195° |
| 2026-04-25 06:12 | 57.40672 | 23.75352 | 35661 ft | 495 kts | 195° |
| 2026-04-25 06:13 | 57.33917 | 23.73175 | 35631 ft | 495 kts | 195° |
| 2026-04-25 06:14 | 57.23703 | 23.69906 | 35668 ft | 496 kts | 195° |
| 2026-04-25 06:14 | 57.16896 | 23.67738 | 35677 ft | 496 kts | 195° |
| 2026-04-25 06:15 | 57.10072 | 23.65570 | 35673 ft | 496 kts | 195° |
| 2026-04-25 06:15 | 57.03314 | 23.63431 | 35675 ft | 497 kts | 195° |
| 2026-04-25 06:16 | 56.96489 | 23.61279 | 35676 ft | 497 kts | 195° |
| 2026-04-25 06:16 | 56.89678 | 23.59139 | 35689 ft | 497 kts | 195° |
| 2026-04-25 06:17 | 56.82860 | 23.57005 | 35686 ft | 497 kts | 195° |
| 2026-04-25 06:17 | 56.76048 | 23.54882 | 35677 ft | 497 kts | 195° |
| 2026-04-25 06:18 | 56.69218 | 23.52759 | 35691 ft | 498 kts | 195° |
| 2026-04-25 06:18 | 56.62379 | 23.50642 | 35691 ft | 498 kts | 195° |
| 2026-04-25 06:19 | 56.55548 | 23.48535 | 35692 ft | 498 kts | 195° |
| 2026-04-25 06:19 | 56.48766 | 23.46451 | 35691 ft | 498 kts | 195° |
| 2026-04-25 06:20 | 56.41938 | 23.44361 | 35693 ft | 498 kts | 195° |
| 2026-04-25 06:20 | 56.35107 | 23.42282 | 35697 ft | 498 kts | 194° |
| 2026-04-25 06:21 | 56.28205 | 23.40819 | 36051 ft | 497 kts | 191° |
| 2026-04-25 06:21 | 56.24756 | 23.40265 | 36313 ft | 496 kts | 190° |
| 2026-04-25 06:21 | 56.21319 | 23.39715 | 36437 ft | 496 kts | 191° |
| 2026-04-25 06:21 | 56.17885 | 23.39141 | 36574 ft | 496 kts | 191° |
| 2026-04-25 06:22 | 56.14451 | 23.38541 | 36705 ft | 496 kts | 191° |
| 2026-04-25 06:22 | 56.07531 | 23.37273 | 36715 ft | 502 kts | 191° |
| 2026-04-25 06:23 | 56.00581 | 23.35982 | 36716 ft | 502 kts | 191° |
| 2026-04-25 06:23 | 55.93644 | 23.34700 | 36710 ft | 501 kts | 191° |
| 2026-04-25 06:24 | 55.86694 | 23.33421 | 36721 ft | 502 kts | 191° |
| 2026-04-25 06:24 | 55.79739 | 23.32148 | 36719 ft | 502 kts | 191° |
| 2026-04-25 06:25 | 55.72794 | 23.30881 | 36719 ft | 502 kts | 191° |
| 2026-04-25 06:25 | 55.65844 | 23.29619 | 36718 ft | 502 kts | 191° |
| 2026-04-25 06:26 | 55.58934 | 23.28366 | 36724 ft | 503 kts | 191° |
| 2026-04-25 06:26 | 55.51968 | 23.27109 | 36733 ft | 503 kts | 191° |
| 2026-04-25 06:27 | 55.45013 | 23.25858 | 36738 ft | 503 kts | 191° |
| 2026-04-25 06:27 | 55.38045 | 23.24610 | 36735 ft | 503 kts | 191° |
| 2026-04-25 06:28 | 55.31072 | 23.23364 | 36743 ft | 503 kts | 191° |
| 2026-04-25 06:28 | 55.24100 | 23.22123 | 36751 ft | 503 kts | 191° |
| 2026-04-25 06:29 | 55.17122 | 23.20885 | 36748 ft | 504 kts | 191° |
| 2026-04-25 06:29 | 55.10146 | 23.19653 | 36762 ft | 504 kts | 191° |
| 2026-04-25 06:30 | 55.03200 | 23.18430 | 36765 ft | 504 kts | 191° |
| 2026-04-25 06:30 | 54.96214 | 23.17204 | 36754 ft | 504 kts | 191° |
| 2026-04-25 06:31 | 54.89227 | 23.15982 | 36768 ft | 504 kts | 191° |
| 2026-04-25 06:31 | 54.82245 | 23.14766 | 36763 ft | 504 kts | 191° |
| 2026-04-25 06:32 | 54.75256 | 23.13552 | 36769 ft | 504 kts | 191° |
| 2026-04-25 06:32 | 54.68322 | 23.12352 | 36773 ft | 504 kts | 191° |
| 2026-04-25 06:33 | 54.61336 | 23.11147 | 36769 ft | 504 kts | 191° |
| 2026-04-25 06:33 | 54.54343 | 23.09945 | 36771 ft | 505 kts | 191° |
| 2026-04-25 06:34 | 54.47353 | 23.08748 | 36779 ft | 505 kts | 191° |
| 2026-04-25 06:34 | 54.41538 | 23.07755 | 36784 ft | 505 kts | 191° |
| 2026-04-25 06:35 | 54.33397 | 23.06370 | 36750 ft | 505 kts | 191° |
| 2026-04-25 06:35 | 54.26425 | 23.04966 | 36604 ft | 500 kts | 195° |
| 2026-04-25 06:35 | 54.24163 | 23.04272 | 36433 ft | 496 kts | 197° |
| 2026-04-25 06:36 | 54.20788 | 23.03112 | 36186 ft | 494 kts | 198° |
| 2026-04-25 06:36 | 54.17420 | 23.01910 | 35931 ft | 494 kts | 198° |
| 2026-04-25 06:36 | 54.14048 | 23.00725 | 35806 ft | 494 kts | 198° |
| 2026-04-25 06:37 | 54.07283 | 22.98461 | 35774 ft | 495 kts | 197° |
| 2026-04-25 06:37 | 54.00500 | 22.96299 | 35808 ft | 496 kts | 197° |
| 2026-04-25 06:38 | 53.93699 | 22.94168 | 35804 ft | 496 kts | 197° |
| 2026-04-25 06:38 | 53.86950 | 22.92060 | 35804 ft | 496 kts | 197° |
| 2026-04-25 06:39 | 53.80141 | 22.89933 | 35807 ft | 497 kts | 197° |
| 2026-04-25 06:39 | 53.73340 | 22.87815 | 35809 ft | 496 kts | 197° |
| 2026-04-25 06:40 | 53.66546 | 22.85705 | 35818 ft | 496 kts | 197° |
| 2026-04-25 06:40 | 53.59747 | 22.83601 | 35812 ft | 496 kts | 197° |
| 2026-04-25 06:41 | 53.52954 | 22.81504 | 35811 ft | 497 kts | 197° |
| 2026-04-25 06:41 | 53.46141 | 22.79407 | 35815 ft | 498 kts | 197° |
| 2026-04-25 06:42 | 53.39323 | 22.77319 | 35812 ft | 498 kts | 197° |
| 2026-04-25 06:42 | 53.32502 | 22.75236 | 35785 ft | 498 kts | 197° |
| 2026-04-25 06:43 | 53.25682 | 22.73159 | 35817 ft | 498 kts | 197° |
| 2026-04-25 06:43 | 53.18902 | 22.71102 | 35820 ft | 498 kts | 197° |
| 2026-04-25 06:44 | 53.12081 | 22.69038 | 35819 ft | 498 kts | 197° |
| 2026-04-25 06:44 | 53.05263 | 22.66983 | 35809 ft | 498 kts | 196° |
| 2026-04-25 06:45 | 52.98437 | 22.64930 | 35822 ft | 498 kts | 196° |
| 2026-04-25 06:45 | 52.91609 | 22.62885 | 35827 ft | 498 kts | 196° |
| 2026-04-25 06:46 | 52.84782 | 22.60846 | 35829 ft | 498 kts | 196° |
| 2026-04-25 06:46 | 52.77960 | 22.58815 | 35829 ft | 498 kts | 196° |
| 2026-04-25 06:47 | 52.71146 | 22.56794 | 35825 ft | 497 kts | 196° |
| 2026-04-25 06:47 | 52.64371 | 22.54789 | 35834 ft | 497 kts | 196° |
| 2026-04-25 06:48 | 52.57545 | 22.52868 | 35812 ft | 499 kts | 193° |
| 2026-04-25 06:48 | 52.50631 | 22.51453 | 35840 ft | 501 kts | 192° |
| 2026-04-25 06:49 | 52.43702 | 22.50131 | 35839 ft | 501 kts | 192° |
| 2026-04-25 06:49 | 52.36779 | 22.48741 | 35845 ft | 501 kts | 193° |
| 2026-04-25 06:50 | 52.29868 | 22.47307 | 35839 ft | 500 kts | 193° |
| 2026-04-25 06:50 | 52.22993 | 22.45875 | 35851 ft | 500 kts | 193° |
| 2026-04-25 06:51 | 52.16086 | 22.44442 | 35857 ft | 500 kts | 192° |
| 2026-04-25 06:51 | 52.09179 | 22.43015 | 35856 ft | 500 kts | 192° |
| 2026-04-25 06:52 | 52.02283 | 22.41596 | 35862 ft | 499 kts | 192° |
| 2026-04-25 06:52 | 51.95394 | 22.40183 | 35873 ft | 499 kts | 192° |
| 2026-04-25 06:53 | 51.88511 | 22.38776 | 35878 ft | 498 kts | 192° |
| 2026-04-25 06:53 | 51.81624 | 22.37371 | 35866 ft | 498 kts | 192° |
| 2026-04-25 06:54 | 51.74750 | 22.35975 | 35885 ft | 497 kts | 192° |
| 2026-04-25 06:54 | 51.67923 | 22.34592 | 35892 ft | 497 kts | 192° |
| 2026-04-25 06:55 | 51.61053 | 22.33204 | 35892 ft | 497 kts | 192° |
| 2026-04-25 06:55 | 51.54192 | 22.31823 | 35897 ft | 496 kts | 192° |
| 2026-04-25 06:56 | 51.47343 | 22.30448 | 35898 ft | 496 kts | 192° |
| 2026-04-25 06:56 | 51.40498 | 22.29078 | 35897 ft | 496 kts | 192° |
| 2026-04-25 06:57 | 51.33650 | 22.27710 | 35906 ft | 496 kts | 192° |
| 2026-04-25 06:57 | 51.26800 | 22.26348 | 35912 ft | 496 kts | 192° |
| 2026-04-25 06:58 | 51.19998 | 22.24999 | 35921 ft | 496 kts | 192° |
| 2026-04-25 06:58 | 51.13151 | 22.23645 | 35923 ft | 496 kts | 192° |
| 2026-04-25 06:59 | 51.06304 | 22.22296 | 35927 ft | 496 kts | 193° |
| 2026-04-25 06:59 | 50.99444 | 22.20946 | 35937 ft | 497 kts | 193° |
| 2026-04-25 07:00 | 50.92586 | 22.19602 | 35944 ft | 497 kts | 193° |
| 2026-04-25 07:00 | 50.85711 | 22.18258 | 35930 ft | 497 kts | 193° |
| 2026-04-25 07:01 | 50.78855 | 22.16921 | 35954 ft | 500 kts | 193° |
| 2026-04-25 07:01 | 50.71945 | 22.15578 | 35960 ft | 501 kts | 193° |
| 2026-04-25 07:02 | 50.65027 | 22.14240 | 35963 ft | 501 kts | 193° |
| 2026-04-25 07:02 | 50.58105 | 22.12905 | 35968 ft | 502 kts | 194° |
| 2026-04-25 07:03 | 50.51153 | 22.11564 | 35969 ft | 503 kts | 194° |
| 2026-04-25 07:03 | 50.44201 | 22.10230 | 35986 ft | 504 kts | 194° |
| 2026-04-25 07:04 | 50.37248 | 22.08901 | 35963 ft | 503 kts | 194° |
| 2026-04-25 07:04 | 50.30299 | 22.07576 | 35972 ft | 503 kts | 194° |
| 2026-04-25 07:05 | 50.23339 | 22.06251 | 35969 ft | 503 kts | 194° |
| 2026-04-25 07:05 | 50.16431 | 22.04940 | 35966 ft | 503 kts | 194° |
| 2026-04-25 07:06 | 50.09483 | 22.03625 | 35962 ft | 503 kts | 194° |
| 2026-04-25 07:06 | 50.02537 | 22.02315 | 35966 ft | 503 kts | 194° |
| 2026-04-25 07:07 | 49.95584 | 22.01008 | 35966 ft | 503 kts | 194° |
| 2026-04-25 07:07 | 49.88642 | 21.99705 | 35995 ft | 502 kts | 193° |
| 2026-04-25 07:08 | 49.81739 | 21.98416 | 35992 ft | 502 kts | 193° |
| 2026-04-25 07:08 | 49.74804 | 21.97123 | 35998 ft | 502 kts | 193° |
| 2026-04-25 07:09 | 49.67855 | 21.95830 | 35982 ft | 502 kts | 193° |
| 2026-04-25 07:09 | 49.60949 | 21.94550 | 36002 ft | 502 kts | 193° |
| 2026-04-25 07:10 | 49.54071 | 21.93288 | 36004 ft | 489 kts | 193° |
| 2026-04-25 07:10 | 49.47371 | 21.92095 | 36003 ft | 482 kts | 193° |
| 2026-04-25 07:11 | 49.40690 | 21.90909 | 36003 ft | 485 kts | 193° |
| 2026-04-25 07:11 | 49.33960 | 21.89655 | 36002 ft | 495 kts | 193° |
| 2026-04-25 07:12 | 49.27065 | 21.88365 | 35999 ft | 503 kts | 193° |
| 2026-04-25 07:12 | 49.16619 | 21.86448 | 36002 ft | 503 kts | 193° |
| 2026-04-25 07:13 | 49.09647 | 21.85179 | 36004 ft | 503 kts | 193° |
| 2026-04-25 07:13 | 49.02718 | 21.83850 | 36004 ft | 504 kts | 193° |
| 2026-04-25 07:14 | 48.95737 | 21.82587 | 36004 ft | 507 kts | 193° |
| 2026-04-25 07:14 | 48.88641 | 21.81889 | 36002 ft | 517 kts | 181° |
| 2026-04-25 07:15 | 48.81490 | 21.83064 | 36008 ft | 521 kts | 177° |
| 2026-04-25 07:15 | 48.74303 | 21.84618 | 36003 ft | 522 kts | 176° |
| 2026-04-25 07:16 | 48.67116 | 21.86203 | 36003 ft | 522 kts | 176° |
| 2026-04-25 07:16 | 48.59921 | 21.87747 | 36009 ft | 522 kts | 176° |
| 2026-04-25 07:17 | 48.52733 | 21.89260 | 35986 ft | 521 kts | 176° |
| 2026-04-25 07:17 | 48.45533 | 21.90766 | 36007 ft | 522 kts | 176° |
| 2026-04-25 07:18 | 48.38455 | 21.93423 | 35990 ft | 531 kts | 160° |
| 2026-04-25 07:18 | 48.35212 | 21.95971 | 36072 ft | 535 kts | 148° |
| 2026-04-25 07:18 | 48.32287 | 21.99408 | 36340 ft | 534 kts | 137° |
| 2026-04-25 07:19 | 48.29681 | 22.03380 | 36599 ft | 533 kts | 133° |
| 2026-04-25 07:19 | 48.27174 | 22.07499 | 36799 ft | 532 kts | 132° |
| 2026-04-25 07:19 | 48.24724 | 22.11655 | 36952 ft | 532 kts | 131° |
| 2026-04-25 07:19 | 48.22278 | 22.15839 | 36999 ft | 535 kts | 131° |
| 2026-04-25 07:20 | 48.17332 | 22.24228 | 37007 ft | 537 kts | 131° |
| 2026-04-25 07:20 | 48.12353 | 22.32547 | 37010 ft | 536 kts | 132° |
| 2026-04-25 07:21 | 48.07362 | 22.40817 | 37001 ft | 535 kts | 132° |
| 2026-04-25 07:21 | 48.02356 | 22.49079 | 37004 ft | 535 kts | 132° |
| 2026-04-25 07:22 | 47.97346 | 22.57324 | 36998 ft | 535 kts | 132° |
| 2026-04-25 07:22 | 47.92538 | 22.65217 | 37001 ft | 535 kts | 132° |
| 2026-04-25 07:23 | 47.87531 | 22.73411 | 37004 ft | 534 kts | 132° |
| 2026-04-25 07:23 | 47.82525 | 22.81580 | 36999 ft | 534 kts | 132° |
| 2026-04-25 07:24 | 47.77507 | 22.89741 | 37020 ft | 534 kts | 132° |
| 2026-04-25 07:24 | 47.72490 | 22.97876 | 37020 ft | 532 kts | 132° |
| 2026-04-25 07:25 | 47.67506 | 23.05933 | 37020 ft | 532 kts | 132° |
| 2026-04-25 07:25 | 47.62496 | 23.14008 | 37016 ft | 532 kts | 132° |
| 2026-04-25 07:26 | 47.57482 | 23.22064 | 37022 ft | 532 kts | 132° |
| 2026-04-25 07:26 | 47.52465 | 23.30100 | 37006 ft | 531 kts | 132° |
| 2026-04-25 07:27 | 47.47446 | 23.38116 | 37011 ft | 531 kts | 132° |
| 2026-04-25 07:27 | 47.42417 | 23.46123 | 37016 ft | 531 kts | 132° |
| 2026-04-25 07:28 | 47.37389 | 23.54104 | 37012 ft | 531 kts | 132° |
| 2026-04-25 07:28 | 47.32389 | 23.62019 | 37024 ft | 530 kts | 132° |
| 2026-04-25 07:29 | 47.27347 | 23.69973 | 37024 ft | 530 kts | 132° |
| 2026-04-25 07:29 | 47.22313 | 23.77894 | 36998 ft | 530 kts | 133° |
| 2026-04-25 07:30 | 47.17288 | 23.85774 | 37035 ft | 530 kts | 132° |
| 2026-04-25 07:30 | 47.12242 | 23.93666 | 37038 ft | 530 kts | 133° |
| 2026-04-25 07:31 | 47.07182 | 24.01555 | 37035 ft | 529 kts | 133° |
| 2026-04-25 07:31 | 47.02128 | 24.09412 | 37050 ft | 529 kts | 133° |
| 2026-04-25 07:32 | 46.97074 | 24.17246 | 37040 ft | 529 kts | 133° |
| 2026-04-25 07:32 | 46.92049 | 24.25012 | 37039 ft | 528 kts | 133° |
| 2026-04-25 07:33 | 46.86991 | 24.32807 | 37026 ft | 528 kts | 133° |
| 2026-04-25 07:33 | 46.81925 | 24.40591 | 37043 ft | 527 kts | 133° |
| 2026-04-25 07:34 | 46.72110 | 24.55608 | 37038 ft | 526 kts | 133° |
| 2026-04-25 07:35 | 46.67077 | 24.63275 | 37041 ft | 526 kts | 133° |
| 2026-04-25 07:35 | 46.62010 | 24.70970 | 37040 ft | 526 kts | 133° |
| 2026-04-25 07:36 | 46.56934 | 24.78658 | 37040 ft | 526 kts | 133° |
| 2026-04-25 07:36 | 46.51859 | 24.86324 | 37029 ft | 526 kts | 133° |
| 2026-04-25 07:37 | 46.46784 | 24.93965 | 37033 ft | 524 kts | 133° |
| 2026-04-25 07:37 | 46.41723 | 25.01565 | 37036 ft | 523 kts | 133° |
| 2026-04-25 07:38 | 46.36691 | 25.09099 | 37035 ft | 522 kts | 133° |
| 2026-04-25 07:38 | 46.31631 | 25.16655 | 37038 ft | 522 kts | 133° |
| 2026-04-25 07:39 | 46.26567 | 25.24194 | 37037 ft | 522 kts | 133° |
| 2026-04-25 07:39 | 46.21493 | 25.31728 | 37032 ft | 522 kts | 133° |
| 2026-04-25 07:40 | 46.16440 | 25.39210 | 37031 ft | 523 kts | 133° |
| 2026-04-25 07:40 | 46.11350 | 25.46725 | 37046 ft | 523 kts | 133° |
| 2026-04-25 07:41 | 46.06254 | 25.54227 | 37035 ft | 523 kts | 133° |
| 2026-04-25 07:41 | 46.01156 | 25.61711 | 37038 ft | 523 kts | 133° |
| 2026-04-25 07:42 | 45.96053 | 25.69182 | 37039 ft | 523 kts | 133° |
| 2026-04-25 07:42 | 45.90980 | 25.76588 | 37041 ft | 523 kts | 133° |
| 2026-04-25 07:43 | 45.85864 | 25.84036 | 37040 ft | 523 kts | 133° |
| 2026-04-25 07:43 | 45.80754 | 25.91454 | 37040 ft | 523 kts | 133° |
| 2026-04-25 07:44 | 45.75633 | 25.98869 | 37039 ft | 523 kts | 133° |
| 2026-04-25 07:44 | 45.70515 | 26.06259 | 37036 ft | 522 kts | 134° |
| 2026-04-25 07:45 | 45.65403 | 26.13619 | 37036 ft | 521 kts | 134° |
| 2026-04-25 07:45 | 45.60291 | 26.20958 | 37031 ft | 521 kts | 134° |
| 2026-04-25 07:46 | 45.55169 | 26.28292 | 37035 ft | 520 kts | 134° |
| 2026-04-25 07:46 | 45.50102 | 26.35527 | 37032 ft | 518 kts | 134° |
| 2026-04-25 07:47 | 45.45005 | 26.42788 | 37036 ft | 518 kts | 134° |
| 2026-04-25 07:47 | 45.39907 | 26.50029 | 37045 ft | 518 kts | 134° |
| 2026-04-25 07:48 | 45.34801 | 26.57262 | 37041 ft | 518 kts | 134° |
| 2026-04-25 07:48 | 45.29696 | 26.64473 | 37039 ft | 518 kts | 134° |
| 2026-04-25 07:49 | 45.24584 | 26.71677 | 37045 ft | 518 kts | 134° |
| 2026-04-25 07:49 | 45.19466 | 26.78869 | 37047 ft | 517 kts | 134° |
| 2026-04-25 07:50 | 45.14386 | 26.85987 | 37046 ft | 516 kts | 134° |
| 2026-04-25 07:50 | 45.09282 | 26.93120 | 37049 ft | 516 kts | 134° |
| 2026-04-25 07:51 | 45.04169 | 27.00247 | 37051 ft | 516 kts | 134° |
| 2026-04-25 07:51 | 44.99058 | 27.07353 | 37050 ft | 515 kts | 134° |
| 2026-04-25 07:52 | 44.94812 | 27.13242 | 37045 ft | 514 kts | 134° |
| 2026-04-25 07:52 | 44.89695 | 27.20322 | 37045 ft | 514 kts | 134° |
| 2026-04-25 07:53 | 44.84609 | 27.27340 | 37035 ft | 514 kts | 134° |
| 2026-04-25 07:53 | 44.79496 | 27.34377 | 37047 ft | 514 kts | 134° |
| 2026-04-25 07:54 | 44.74376 | 27.41405 | 37049 ft | 514 kts | 134° |
| 2026-04-25 07:54 | 44.69250 | 27.48424 | 37053 ft | 514 kts | 134° |
| 2026-04-25 07:55 | 44.64131 | 27.55414 | 37046 ft | 512 kts | 134° |
| 2026-04-25 07:55 | 44.59014 | 27.62383 | 37047 ft | 512 kts | 134° |
| 2026-04-25 07:56 | 44.53899 | 27.69333 | 37044 ft | 512 kts | 134° |
| 2026-04-25 07:56 | 44.48812 | 27.76226 | 37041 ft | 511 kts | 134° |
| 2026-04-25 07:57 | 44.43695 | 27.83141 | 37044 ft | 510 kts | 134° |
| 2026-04-25 07:57 | 44.38580 | 27.90038 | 37038 ft | 510 kts | 134° |
| 2026-04-25 07:58 | 44.33491 | 27.96881 | 37051 ft | 510 kts | 134° |
| 2026-04-25 07:58 | 44.28379 | 28.03737 | 37039 ft | 509 kts | 135° |
| 2026-04-25 07:59 | 44.23267 | 28.10577 | 37040 ft | 509 kts | 135° |
| 2026-04-25 07:59 | 44.18146 | 28.17410 | 37033 ft | 508 kts | 135° |
| 2026-04-25 08:00 | 44.13038 | 28.24209 | 37042 ft | 507 kts | 135° |
| 2026-04-25 08:00 | 44.07935 | 28.30984 | 37040 ft | 507 kts | 135° |
| 2026-04-25 08:01 | 44.02832 | 28.37742 | 37043 ft | 506 kts | 135° |
| 2026-04-25 08:01 | 43.97761 | 28.44443 | 37053 ft | 506 kts | 135° |
| 2026-04-25 08:02 | 43.92653 | 28.51174 | 37048 ft | 505 kts | 135° |
| 2026-04-25 08:02 | 43.87555 | 28.57877 | 37052 ft | 505 kts | 135° |
| 2026-04-25 08:03 | 43.82446 | 28.64575 | 37065 ft | 505 kts | 135° |
| 2026-04-25 08:03 | 43.77344 | 28.71250 | 37071 ft | 504 kts | 135° |
| 2026-04-25 08:04 | 43.72262 | 28.77883 | 37068 ft | 504 kts | 136° |
| 2026-04-25 08:04 | 43.67724 | 28.85210 | 37069 ft | 502 kts | 126° |
| 2026-04-25 08:05 | 43.63587 | 28.92985 | 37070 ft | 502 kts | 124° |
| 2026-04-25 08:05 | 43.59537 | 29.00766 | 37067 ft | 502 kts | 124° |
| 2026-04-25 08:06 | 43.55456 | 29.08577 | 37066 ft | 502 kts | 124° |
| 2026-04-25 08:06 | 43.51353 | 29.16375 | 37067 ft | 502 kts | 125° |
| 2026-04-25 08:07 | 43.47242 | 29.24152 | 37063 ft | 502 kts | 125° |
| 2026-04-25 08:07 | 43.43128 | 29.31914 | 37065 ft | 501 kts | 125° |
| 2026-04-25 08:08 | 43.39011 | 29.39660 | 37059 ft | 501 kts | 125° |
| 2026-04-25 08:08 | 43.34889 | 29.47400 | 37063 ft | 502 kts | 125° |
| 2026-04-25 08:09 | 43.30780 | 29.55094 | 37061 ft | 502 kts | 125° |
| 2026-04-25 08:09 | 43.26638 | 29.62828 | 37062 ft | 502 kts | 125° |
| 2026-04-25 08:10 | 43.22490 | 29.70553 | 37062 ft | 502 kts | 125° |
| 2026-04-25 08:10 | 43.18348 | 29.78248 | 37065 ft | 502 kts | 126° |
| 2026-04-25 08:11 | 43.14218 | 29.85900 | 37065 ft | 502 kts | 126° |
| 2026-04-25 08:11 | 43.10054 | 29.93596 | 37072 ft | 502 kts | 126° |
| 2026-04-25 08:12 | 43.05884 | 30.01284 | 37059 ft | 503 kts | 126° |
| 2026-04-25 08:12 | 43.01705 | 30.08966 | 37068 ft | 503 kts | 126° |
| 2026-04-25 08:13 | 42.97523 | 30.16633 | 37069 ft | 503 kts | 126° |
| 2026-04-25 08:14 | 42.91263 | 30.28078 | 37070 ft | 504 kts | 126° |
| 2026-04-25 08:14 | 42.87050 | 30.35753 | 37073 ft | 504 kts | 126° |
| 2026-04-25 08:15 | 42.82837 | 30.43410 | 37071 ft | 504 kts | 126° |
| 2026-04-25 08:15 | 42.78620 | 30.51054 | 37075 ft | 505 kts | 127° |
| 2026-04-25 08:16 | 42.74651 | 30.58863 | 37082 ft | 504 kts | 117° |
| 2026-04-25 08:16 | 42.72093 | 30.67697 | 37080 ft | 502 kts | 107° |
| 2026-04-25 08:17 | 42.70074 | 30.76802 | 37081 ft | 503 kts | 105° |
| 2026-04-25 08:17 | 42.68128 | 30.85940 | 37081 ft | 503 kts | 105° |
| 2026-04-25 08:18 | 42.66153 | 30.95068 | 37081 ft | 504 kts | 105° |
| 2026-04-25 08:18 | 42.64148 | 31.04190 | 37080 ft | 504 kts | 106° |
| 2026-04-25 08:19 | 42.62131 | 31.13295 | 37083 ft | 503 kts | 106° |
| 2026-04-25 08:19 | 42.60108 | 31.22389 | 37083 ft | 503 kts | 106° |
| 2026-04-25 08:20 | 42.58080 | 31.31469 | 37082 ft | 503 kts | 106° |
| 2026-04-25 08:20 | 42.56041 | 31.40565 | 37084 ft | 503 kts | 106° |
| 2026-04-25 08:21 | 42.54009 | 31.49591 | 37086 ft | 503 kts | 107° |
| 2026-04-25 08:21 | 42.51961 | 31.58653 | 37088 ft | 503 kts | 107° |
| 2026-04-25 08:22 | 42.49900 | 31.67733 | 37087 ft | 503 kts | 107° |
| 2026-04-25 08:22 | 42.47835 | 31.76791 | 37092 ft | 502 kts | 107° |
| 2026-04-25 08:23 | 42.45777 | 31.85784 | 37093 ft | 502 kts | 107° |
| 2026-04-25 08:23 | 42.43698 | 31.94831 | 37094 ft | 502 kts | 107° |
| 2026-04-25 08:24 | 42.41614 | 32.03865 | 37089 ft | 502 kts | 107° |
| 2026-04-25 08:24 | 42.39523 | 32.12889 | 37092 ft | 502 kts | 107° |
| 2026-04-25 08:25 | 42.37426 | 32.21906 | 37094 ft | 502 kts | 107° |
| 2026-04-25 08:25 | 42.35335 | 32.30857 | 37096 ft | 502 kts | 107° |
| 2026-04-25 08:26 | 42.33226 | 32.39850 | 37094 ft | 502 kts | 108° |
| 2026-04-25 08:26 | 42.31111 | 32.48837 | 37104 ft | 501 kts | 108° |
| 2026-04-25 08:27 | 42.28987 | 32.57825 | 37096 ft | 503 kts | 108° |
| 2026-04-25 08:27 | 42.26848 | 32.66838 | 37097 ft | 504 kts | 108° |
| 2026-04-25 08:28 | 42.24702 | 32.75843 | 37095 ft | 503 kts | 108° |
| 2026-04-25 08:28 | 42.22550 | 32.84839 | 37094 ft | 503 kts | 108° |
| 2026-04-25 08:29 | 42.20392 | 32.93829 | 37094 ft | 504 kts | 108° |
| 2026-04-25 08:29 | 42.18242 | 33.02747 | 37095 ft | 503 kts | 108° |
| 2026-04-25 08:30 | 42.16070 | 33.11721 | 37096 ft | 503 kts | 108° |
| 2026-04-25 08:30 | 42.13893 | 33.20679 | 37097 ft | 503 kts | 108° |
| 2026-04-25 08:31 | 42.11710 | 33.29630 | 37089 ft | 503 kts | 108° |
| 2026-04-25 08:31 | 42.09522 | 33.38564 | 37088 ft | 502 kts | 108° |
| 2026-04-25 08:32 | 42.07343 | 33.47429 | 37095 ft | 502 kts | 109° |
| 2026-04-25 08:32 | 42.05143 | 33.56348 | 37096 ft | 502 kts | 109° |
| 2026-04-25 08:33 | 42.02938 | 33.65250 | 37092 ft | 501 kts | 109° |
| 2026-04-25 08:33 | 42.00727 | 33.74142 | 37091 ft | 501 kts | 109° |
| 2026-04-25 08:34 | 41.98511 | 33.83019 | 37092 ft | 501 kts | 109° |
| 2026-04-25 08:34 | 41.96288 | 33.91894 | 37094 ft | 501 kts | 109° |
| 2026-04-25 08:35 | 41.94058 | 34.00762 | 37094 ft | 500 kts | 109° |
| 2026-04-25 08:35 | 41.91822 | 34.09623 | 37097 ft | 500 kts | 109° |
| 2026-04-25 08:36 | 41.89582 | 34.18467 | 37097 ft | 500 kts | 109° |
| 2026-04-25 08:36 | 41.87347 | 34.27257 | 37093 ft | 500 kts | 109° |
| 2026-04-25 08:37 | 41.85090 | 34.36096 | 37093 ft | 500 kts | 109° |
| 2026-04-25 08:37 | 41.82829 | 34.44917 | 37093 ft | 500 kts | 109° |
| 2026-04-25 08:38 | 41.80560 | 34.53740 | 37090 ft | 500 kts | 109° |
| 2026-04-25 08:38 | 41.78288 | 34.62546 | 37106 ft | 500 kts | 110° |
| 2026-04-25 08:39 | 41.76008 | 34.71351 | 37099 ft | 500 kts | 110° |
| 2026-04-25 08:39 | 41.73736 | 34.80086 | 37100 ft | 500 kts | 110° |
| 2026-04-25 08:40 | 41.71443 | 34.88879 | 37101 ft | 500 kts | 110° |
| 2026-04-25 08:40 | 41.69138 | 34.97680 | 37111 ft | 500 kts | 110° |
| 2026-04-25 08:41 | 41.66838 | 35.06432 | 37105 ft | 501 kts | 110° |
| 2026-04-25 08:41 | 41.64894 | 35.13803 | 37108 ft | 502 kts | 110° |
| 2026-04-25 08:42 | 41.62565 | 35.22601 | 37112 ft | 502 kts | 110° |
| 2026-04-25 08:42 | 41.60232 | 35.31388 | 37111 ft | 502 kts | 110° |
| 2026-04-25 08:43 | 41.57887 | 35.40187 | 37106 ft | 502 kts | 110° |
| 2026-04-25 08:43 | 41.55554 | 35.48915 | 37113 ft | 503 kts | 110° |
| 2026-04-25 08:44 | 41.53194 | 35.57707 | 37107 ft | 503 kts | 110° |
| 2026-04-25 08:44 | 41.50830 | 35.66482 | 37111 ft | 503 kts | 110° |
| 2026-04-25 08:45 | 41.48454 | 35.75276 | 37109 ft | 503 kts | 110° |
| 2026-04-25 08:45 | 41.46073 | 35.84051 | 37105 ft | 502 kts | 111° |
| 2026-04-25 08:46 | 41.43704 | 35.92754 | 37112 ft | 502 kts | 111° |
| 2026-04-25 08:46 | 41.41311 | 36.01512 | 37108 ft | 502 kts | 111° |
| 2026-04-25 08:47 | 41.38913 | 36.10261 | 37120 ft | 503 kts | 111° |
| 2026-04-25 08:47 | 41.36502 | 36.19025 | 37116 ft | 503 kts | 111° |
| 2026-04-25 08:48 | 41.34102 | 36.27721 | 37115 ft | 503 kts | 111° |
| 2026-04-25 08:48 | 41.31682 | 36.36458 | 37126 ft | 503 kts | 111° |
| 2026-04-25 08:49 | 41.29253 | 36.45197 | 37111 ft | 504 kts | 111° |
| 2026-04-25 08:49 | 41.26969 | 36.54004 | 37128 ft | 505 kts | 104° |
| 2026-04-25 08:49 | 41.26344 | 36.58602 | 37291 ft | 505 kts | 98° |
| 2026-04-25 08:50 | 41.25914 | 36.63217 | 37515 ft | 503 kts | 97° |
| 2026-04-25 08:50 | 41.25545 | 36.67856 | 37678 ft | 504 kts | 96° |
| 2026-04-25 08:50 | 41.25208 | 36.72487 | 37839 ft | 504 kts | 96° |
| 2026-04-25 08:50 | 41.24880 | 36.77133 | 38016 ft | 504 kts | 96° |
| 2026-04-25 08:51 | 41.24549 | 36.81777 | 38171 ft | 504 kts | 96° |
| 2026-04-25 08:51 | 41.24213 | 36.86418 | 38310 ft | 504 kts | 96° |
| 2026-04-25 08:51 | 41.23869 | 36.91059 | 38459 ft | 504 kts | 96° |
| 2026-04-25 08:51 | 41.23520 | 36.95705 | 38613 ft | 504 kts | 96° |
| 2026-04-25 08:52 | 41.23172 | 37.00278 | 38741 ft | 504 kts | 96° |
| 2026-04-25 08:52 | 41.22453 | 37.09599 | 38855 ft | 507 kts | 97° |
| 2026-04-25 08:52 | 41.22090 | 37.14267 | 38973 ft | 507 kts | 97° |
| 2026-04-25 08:53 | 41.21727 | 37.18925 | 39083 ft | 506 kts | 97° |
| 2026-04-25 08:53 | 41.21013 | 37.28208 | 39137 ft | 510 kts | 96° |
| 2026-04-25 08:54 | 41.20327 | 37.37584 | 39124 ft | 510 kts | 96° |
| 2026-04-25 08:54 | 41.19638 | 37.46966 | 39131 ft | 511 kts | 96° |
| 2026-04-25 08:55 | 41.18935 | 37.56369 | 39134 ft | 511 kts | 96° |
| 2026-04-25 08:55 | 41.18378 | 37.65772 | 39148 ft | 511 kts | 95° |
| 2026-04-25 08:56 | 41.17648 | 37.75162 | 39145 ft | 511 kts | 97° |
| 2026-04-25 08:56 | 41.16816 | 37.84486 | 39144 ft | 513 kts | 97° |
| 2026-04-25 08:57 | 41.15992 | 37.93908 | 39147 ft | 513 kts | 97° |
| 2026-04-25 08:57 | 41.15234 | 38.03358 | 39149 ft | 513 kts | 97° |
| 2026-04-25 08:58 | 41.14491 | 38.12717 | 39160 ft | 513 kts | 97° |
| 2026-04-25 08:58 | 41.13727 | 38.22149 | 39163 ft | 516 kts | 97° |
| 2026-04-25 08:59 | 41.12950 | 38.31636 | 39162 ft | 517 kts | 97° |
| 2026-04-25 08:59 | 41.12166 | 38.41129 | 39158 ft | 517 kts | 97° |
| 2026-04-25 09:00 | 41.11377 | 38.50570 | 39145 ft | 517 kts | 97° |
| 2026-04-25 09:00 | 41.10575 | 38.60060 | 39160 ft | 519 kts | 97° |
| 2026-04-25 09:01 | 41.09759 | 38.69572 | 39159 ft | 519 kts | 97° |
| 2026-04-25 09:01 | 41.08923 | 38.79029 | 39162 ft | 519 kts | 97° |
| 2026-04-25 09:02 | 41.08053 | 38.88539 | 39153 ft | 519 kts | 98° |
| 2026-04-25 09:02 | 41.07173 | 38.98083 | 39156 ft | 522 kts | 98° |
| 2026-04-25 09:03 | 41.06290 | 39.07645 | 39151 ft | 523 kts | 98° |
| 2026-04-25 09:03 | 41.05408 | 39.17165 | 39166 ft | 523 kts | 98° |
| 2026-04-25 09:04 | 41.04529 | 39.26733 | 39162 ft | 523 kts | 98° |
| 2026-04-25 09:04 | 41.03645 | 39.36294 | 39156 ft | 523 kts | 98° |
| 2026-04-25 09:05 | 41.02750 | 39.45882 | 39186 ft | 523 kts | 98° |
| 2026-04-25 09:05 | 41.01848 | 39.55433 | 39208 ft | 523 kts | 98° |
| 2026-04-25 09:06 | 41.00936 | 39.64995 | 39203 ft | 524 kts | 98° |
| 2026-04-25 09:06 | 41.00013 | 39.74585 | 39208 ft | 525 kts | 98° |
| 2026-04-25 09:07 | 40.99438 | 39.84163 | 39205 ft | 526 kts | 93° |
| 2026-04-25 09:07 | 40.99174 | 39.93834 | 39200 ft | 526 kts | 92° |
| 2026-04-25 09:08 | 40.98951 | 40.03523 | 39193 ft | 526 kts | 92° |
| 2026-04-25 09:08 | 40.98718 | 40.13205 | 39210 ft | 527 kts | 92° |
| 2026-04-25 09:09 | 40.98470 | 40.22921 | 39188 ft | 528 kts | 92° |
| 2026-04-25 09:09 | 40.98210 | 40.32578 | 39181 ft | 528 kts | 92° |
| 2026-04-25 09:10 | 40.97934 | 40.42291 | 39187 ft | 528 kts | 92° |
| 2026-04-25 09:10 | 40.97650 | 40.52018 | 39185 ft | 529 kts | 92° |
| 2026-04-25 09:11 | 40.97212 | 40.66612 | 39197 ft | 529 kts | 92° |
| 2026-04-25 09:11 | 40.96911 | 40.76334 | 39204 ft | 529 kts | 93° |
| 2026-04-25 09:12 | 40.96601 | 40.86058 | 39188 ft | 529 kts | 93° |
| 2026-04-25 09:12 | 40.96287 | 40.95798 | 39198 ft | 530 kts | 93° |
| 2026-04-25 09:13 | 40.95958 | 41.05550 | 39199 ft | 530 kts | 93° |
| 2026-04-25 09:13 | 40.95621 | 41.15286 | 39192 ft | 530 kts | 93° |
| 2026-04-25 09:14 | 40.95275 | 41.25019 | 39192 ft | 530 kts | 93° |
| 2026-04-25 09:14 | 40.94919 | 41.34783 | 39180 ft | 532 kts | 94° |
| 2026-04-25 09:15 | 40.94560 | 41.44513 | 39167 ft | 532 kts | 94° |
| 2026-04-25 09:15 | 40.94184 | 41.54298 | 39180 ft | 533 kts | 94° |
| 2026-04-25 09:16 | 40.93805 | 41.64083 | 39174 ft | 532 kts | 94° |
| 2026-04-25 09:16 | 40.93424 | 41.73860 | 39171 ft | 534 kts | 94° |
| 2026-04-25 09:17 | 40.92827 | 41.88631 | 39183 ft | 537 kts | 94° |
| 2026-04-25 09:18 | 40.92417 | 41.98492 | 39180 ft | 537 kts | 94° |
| 2026-04-25 09:18 | 40.91997 | 42.08380 | 39188 ft | 537 kts | 94° |
| 2026-04-25 09:19 | 40.91572 | 42.18221 | 39195 ft | 538 kts | 95° |
| 2026-04-25 09:19 | 40.91135 | 42.28106 | 39199 ft | 538 kts | 95° |
| 2026-04-25 09:20 | 40.90687 | 42.38007 | 39205 ft | 539 kts | 95° |
| 2026-04-25 09:20 | 40.90231 | 42.47923 | 39206 ft | 540 kts | 95° |
| 2026-04-25 09:21 | 40.89767 | 42.57833 | 39207 ft | 541 kts | 95° |
| 2026-04-25 09:21 | 40.89293 | 42.67775 | 39206 ft | 542 kts | 95° |
| 2026-04-25 09:22 | 40.88814 | 42.77663 | 39197 ft | 542 kts | 95° |
| 2026-04-25 09:22 | 40.88323 | 42.87601 | 39210 ft | 542 kts | 95° |
| 2026-04-25 09:23 | 40.87821 | 42.97583 | 39183 ft | 544 kts | 95° |
| 2026-04-25 09:23 | 40.87309 | 43.07568 | 39187 ft | 545 kts | 95° |
| 2026-04-25 09:24 | 40.86789 | 43.17570 | 39178 ft | 545 kts | 95° |
| 2026-04-25 09:24 | 40.86261 | 43.27564 | 39170 ft | 545 kts | 96° |
| 2026-04-25 09:25 | 40.85724 | 43.37552 | 39171 ft | 545 kts | 96° |
| 2026-04-25 09:25 | 40.85181 | 43.47486 | 39164 ft | 546 kts | 96° |
| 2026-04-25 09:26 | 40.84626 | 43.57489 | 39160 ft | 546 kts | 96° |
| 2026-04-25 09:26 | 40.84062 | 43.67506 | 39157 ft | 547 kts | 96° |
| 2026-04-25 09:27 | 40.83615 | 43.77533 | 39149 ft | 547 kts | 94° |
| 2026-04-25 09:27 | 40.83382 | 43.85900 | 39153 ft | 548 kts | 93° |
| 2026-04-25 09:28 | 40.83099 | 43.95955 | 39156 ft | 547 kts | 94° |
| 2026-04-25 09:28 | 40.82770 | 44.06000 | 39149 ft | 547 kts | 94° |
| 2026-04-25 09:29 | 40.82417 | 44.16028 | 39144 ft | 547 kts | 94° |
| 2026-04-25 09:29 | 40.82055 | 44.26073 | 39129 ft | 548 kts | 95° |
| 2026-04-25 09:30 | 40.81685 | 44.36062 | 39133 ft | 548 kts | 95° |
| 2026-04-25 09:30 | 40.81306 | 44.46128 | 39143 ft | 548 kts | 95° |
| 2026-04-25 09:31 | 40.80920 | 44.56212 | 39119 ft | 551 kts | 95° |
| 2026-04-25 09:31 | 40.80520 | 44.66340 | 39112 ft | 554 kts | 95° |
| 2026-04-25 09:32 | 40.80108 | 44.76430 | 39104 ft | 554 kts | 95° |
| 2026-04-25 09:32 | 40.79688 | 44.86585 | 39108 ft | 554 kts | 95° |
| 2026-04-25 09:33 | 40.79263 | 44.96747 | 39110 ft | 554 kts | 95° |
| 2026-04-25 09:33 | 40.78828 | 45.06889 | 39100 ft | 554 kts | 95° |
| 2026-04-25 09:34 | 40.78387 | 45.16986 | 39107 ft | 554 kts | 95° |
| 2026-04-25 09:34 | 40.77934 | 45.27142 | 39108 ft | 555 kts | 95° |
| 2026-04-25 09:35 | 40.77469 | 45.37312 | 39111 ft | 554 kts | 95° |
| 2026-04-25 09:35 | 40.76997 | 45.47461 | 39106 ft | 553 kts | 96° |
| 2026-04-25 09:36 | 40.76395 | 45.57543 | 39107 ft | 554 kts | 99° |
| 2026-04-25 09:36 | 40.75425 | 45.67632 | 39105 ft | 554 kts | 101° |
| 2026-04-25 09:37 | 40.74420 | 45.77703 | 39101 ft | 554 kts | 100° |
| 2026-04-25 09:37 | 40.73459 | 45.87807 | 39072 ft | 554 kts | 100° |
| 2026-04-25 09:38 | 40.72523 | 45.97905 | 39103 ft | 553 kts | 100° |
| 2026-04-25 09:38 | 40.71586 | 46.07961 | 39105 ft | 553 kts | 100° |
| 2026-04-25 09:39 | 40.70639 | 46.18000 | 39096 ft | 552 kts | 101° |
| 2026-04-25 09:39 | 40.69681 | 46.28038 | 39084 ft | 552 kts | 101° |
| 2026-04-25 09:40 | 40.68230 | 46.43100 | 39101 ft | 552 kts | 101° |
| 2026-04-25 09:40 | 40.67258 | 46.53062 | 39101 ft | 552 kts | 101° |
| 2026-04-25 09:41 | 40.66272 | 46.63084 | 39097 ft | 552 kts | 101° |
| 2026-04-25 09:41 | 40.65273 | 46.73132 | 39089 ft | 554 kts | 101° |
| 2026-04-25 09:42 | 40.64263 | 46.83200 | 39084 ft | 554 kts | 101° |
| 2026-04-25 09:42 | 40.63245 | 46.93273 | 39073 ft | 554 kts | 101° |
| 2026-04-25 09:43 | 40.62218 | 47.03346 | 39076 ft | 554 kts | 102° |
| 2026-04-25 09:43 | 40.61184 | 47.13388 | 39074 ft | 552 kts | 101° |
| 2026-04-25 09:44 | 40.60544 | 47.23401 | 39075 ft | 554 kts | 96° |
| 2026-04-25 09:44 | 40.60221 | 47.33535 | 39070 ft | 554 kts | 95° |
| 2026-04-25 09:45 | 40.59942 | 47.43673 | 39055 ft | 554 kts | 95° |
| 2026-04-25 09:45 | 40.59653 | 47.53832 | 39044 ft | 554 kts | 95° |
| 2026-04-25 09:46 | 40.59346 | 47.63972 | 39028 ft | 554 kts | 96° |
| 2026-04-25 09:46 | 40.59027 | 47.74114 | 39023 ft | 555 kts | 96° |
| 2026-04-25 09:47 | 40.58699 | 47.84215 | 39015 ft | 555 kts | 96° |
| 2026-04-25 09:47 | 40.58361 | 47.94365 | 38993 ft | 555 kts | 96° |
| 2026-04-25 09:48 | 40.57970 | 48.04472 | 39005 ft | 552 kts | 97° |
| 2026-04-25 09:48 | 40.57494 | 48.14558 | 39007 ft | 552 kts | 97° |
| 2026-04-25 09:49 | 40.57012 | 48.24639 | 39001 ft | 552 kts | 97° |
| 2026-04-25 09:49 | 40.56535 | 48.34721 | 39002 ft | 553 kts | 97° |
| 2026-04-25 09:50 | 40.56057 | 48.44756 | 38992 ft | 551 kts | 97° |
| 2026-04-25 09:50 | 40.55572 | 48.54814 | 38994 ft | 550 kts | 97° |
| 2026-04-25 09:51 | 40.55078 | 48.64859 | 38992 ft | 550 kts | 97° |
| 2026-04-25 09:51 | 40.54574 | 48.74896 | 38993 ft | 550 kts | 97° |
| 2026-04-25 09:52 | 40.54061 | 48.84931 | 38990 ft | 550 kts | 97° |
| 2026-04-25 09:52 | 40.53542 | 48.94919 | 39004 ft | 550 kts | 97° |
| 2026-04-25 09:53 | 40.53013 | 49.04954 | 39003 ft | 550 kts | 97° |
| 2026-04-25 09:53 | 40.52474 | 49.14990 | 39016 ft | 550 kts | 97° |
| 2026-04-25 09:54 | 40.51928 | 49.25019 | 39018 ft | 550 kts | 97° |
| 2026-04-25 09:54 | 40.51373 | 49.35043 | 39026 ft | 548 kts | 97° |
| 2026-04-25 09:55 | 40.50816 | 49.45031 | 39024 ft | 548 kts | 97° |
| 2026-04-25 09:55 | 40.50248 | 49.54963 | 39037 ft | 548 kts | 98° |
| 2026-04-25 09:56 | 40.49666 | 49.64970 | 39032 ft | 549 kts | 98° |
| 2026-04-25 09:56 | 40.49078 | 49.74970 | 39037 ft | 550 kts | 98° |
| 2026-04-25 09:57 | 40.48478 | 49.85015 | 39044 ft | 552 kts | 98° |
| 2026-04-25 09:57 | 40.47868 | 49.95090 | 39048 ft | 552 kts | 98° |
| 2026-04-25 09:58 | 40.47176 | 50.05077 | 39055 ft | 551 kts | 103° |
| 2026-04-25 09:58 | 40.45957 | 50.14998 | 39023 ft | 551 kts | 104° |
| 2026-04-25 09:59 | 40.44634 | 50.24901 | 39044 ft | 549 kts | 104° |
| 2026-04-25 09:59 | 40.43291 | 50.34763 | 39040 ft | 549 kts | 104° |
| 2026-04-25 10:00 | 40.41946 | 50.44624 | 39039 ft | 549 kts | 104° |
| 2026-04-25 10:00 | 40.40598 | 50.54491 | 39036 ft | 548 kts | 105° |
| 2026-04-25 10:01 | 40.39246 | 50.64336 | 39040 ft | 548 kts | 105° |
| 2026-04-25 10:01 | 40.37884 | 50.74185 | 39037 ft | 548 kts | 105° |
| 2026-04-25 10:02 | 40.36524 | 50.83954 | 39042 ft | 548 kts | 105° |
| 2026-04-25 10:02 | 40.35147 | 50.93787 | 39036 ft | 548 kts | 105° |
| 2026-04-25 10:03 | 40.33764 | 51.03596 | 39043 ft | 546 kts | 105° |
| 2026-04-25 10:03 | 40.32376 | 51.13373 | 39042 ft | 545 kts | 105° |
| 2026-04-25 10:04 | 40.30979 | 51.23156 | 39042 ft | 545 kts | 105° |
| 2026-04-25 10:04 | 40.29582 | 51.32873 | 39028 ft | 544 kts | 105° |
| 2026-04-25 10:05 | 40.28180 | 51.42581 | 39039 ft | 541 kts | 105° |
| 2026-04-25 10:05 | 40.26770 | 51.52285 | 39033 ft | 541 kts | 105° |
| 2026-04-25 10:06 | 40.25356 | 51.61959 | 39040 ft | 541 kts | 105° |
| 2026-04-25 10:06 | 40.23926 | 51.71650 | 39039 ft | 541 kts | 106° |
| 2026-04-25 10:07 | 40.22503 | 51.81245 | 39036 ft | 541 kts | 106° |
| 2026-04-25 10:07 | 40.21059 | 51.90933 | 39037 ft | 541 kts | 106° |
| 2026-04-25 10:08 | 40.19612 | 52.00588 | 39037 ft | 541 kts | 106° |
| 2026-04-25 10:08 | 40.18166 | 52.10183 | 39034 ft | 539 kts | 106° |
| 2026-04-25 10:09 | 40.16711 | 52.19786 | 39036 ft | 537 kts | 106° |
| 2026-04-25 10:09 | 40.15248 | 52.29372 | 39034 ft | 537 kts | 106° |
| 2026-04-25 10:10 | 40.13780 | 52.38933 | 39035 ft | 537 kts | 107° |
| 2026-04-25 10:10 | 40.12304 | 52.48494 | 39029 ft | 535 kts | 107° |
| 2026-04-25 10:11 | 40.10825 | 52.58028 | 39032 ft | 535 kts | 107° |
| 2026-04-25 10:11 | 40.09340 | 52.67534 | 39031 ft | 535 kts | 107° |
| 2026-04-25 10:12 | 40.07845 | 52.77055 | 39033 ft | 534 kts | 107° |
| 2026-04-25 10:13 | 40.05602 | 52.91248 | 39048 ft | 533 kts | 107° |
| 2026-04-25 10:13 | 40.03998 | 53.00674 | 39048 ft | 528 kts | 113° |
| 2026-04-25 10:14 | 40.01633 | 53.09699 | 39048 ft | 524 kts | 116° |
| 2026-04-25 10:14 | 39.99127 | 53.18556 | 39040 ft | 524 kts | 117° |
| 2026-04-25 10:15 | 39.96572 | 53.27447 | 39033 ft | 523 kts | 117° |
| 2026-04-25 10:15 | 39.94019 | 53.36342 | 39020 ft | 524 kts | 117° |
| 2026-04-25 10:16 | 39.91896 | 53.43743 | 39004 ft | 525 kts | 117° |
| 2026-04-25 10:16 | 39.89335 | 53.52656 | 39003 ft | 526 kts | 117° |
| 2026-04-25 10:17 | 39.86764 | 53.61577 | 39001 ft | 526 kts | 117° |
| 2026-04-25 10:17 | 39.84186 | 53.70492 | 39001 ft | 526 kts | 117° |
| 2026-04-25 10:18 | 39.81596 | 53.79413 | 38990 ft | 527 kts | 117° |
| 2026-04-25 10:18 | 39.78996 | 53.88337 | 38990 ft | 528 kts | 117° |
| 2026-04-25 10:19 | 39.76385 | 53.97272 | 38991 ft | 528 kts | 117° |
| 2026-04-25 10:19 | 39.73787 | 54.06131 | 38978 ft | 528 kts | 117° |
| 2026-04-25 10:20 | 39.71166 | 54.15040 | 38984 ft | 528 kts | 117° |
| 2026-04-25 10:20 | 39.68534 | 54.23953 | 38976 ft | 528 kts | 117° |
| 2026-04-25 10:21 | 39.65898 | 54.32853 | 38970 ft | 528 kts | 117° |
| 2026-04-25 10:21 | 39.63266 | 54.41705 | 38965 ft | 529 kts | 117° |
| 2026-04-25 10:22 | 39.60609 | 54.50616 | 38964 ft | 529 kts | 117° |
| 2026-04-25 10:22 | 39.57947 | 54.59513 | 38960 ft | 529 kts | 117° |
| 2026-04-25 10:23 | 39.55273 | 54.68415 | 38952 ft | 530 kts | 117° |
| 2026-04-25 10:23 | 39.52595 | 54.77326 | 38943 ft | 531 kts | 117° |
| 2026-04-25 10:24 | 39.49899 | 54.86246 | 38935 ft | 531 kts | 117° |
| 2026-04-25 10:24 | 39.47195 | 54.95157 | 38934 ft | 531 kts | 117° |
| 2026-04-25 10:25 | 39.44486 | 55.04059 | 38934 ft | 531 kts | 117° |
| 2026-04-25 10:25 | 39.41787 | 55.12905 | 38929 ft | 531 kts | 117° |
| 2026-04-25 10:26 | 39.39064 | 55.21798 | 38918 ft | 531 kts | 117° |
| 2026-04-25 10:26 | 39.36336 | 55.30679 | 38927 ft | 532 kts | 117° |
| 2026-04-25 10:27 | 39.33595 | 55.39571 | 38930 ft | 533 kts | 117° |
| 2026-04-25 10:27 | 39.30844 | 55.48472 | 38928 ft | 532 kts | 118° |
| 2026-04-25 10:28 | 39.28108 | 55.57292 | 38935 ft | 533 kts | 118° |
| 2026-04-25 10:28 | 39.25009 | 55.65941 | 38930 ft | 528 kts | 123° |
| 2026-04-25 10:29 | 39.21636 | 55.74361 | 38930 ft | 528 kts | 124° |
| 2026-04-25 10:29 | 39.18294 | 55.82791 | 38930 ft | 529 kts | 123° |
| 2026-04-25 10:30 | 39.14996 | 55.91278 | 38930 ft | 530 kts | 123° |
| 2026-04-25 10:30 | 39.11712 | 55.99780 | 38930 ft | 530 kts | 123° |
| 2026-04-25 10:31 | 39.08422 | 56.08280 | 38927 ft | 530 kts | 123° |
| 2026-04-25 10:31 | 39.05122 | 56.16773 | 38926 ft | 530 kts | 123° |
| 2026-04-25 10:32 | 39.01818 | 56.25250 | 38926 ft | 530 kts | 123° |
| 2026-04-25 10:32 | 38.98887 | 56.34023 | 38919 ft | 537 kts | 116° |
| 2026-04-25 10:33 | 38.96351 | 56.43069 | 38927 ft | 539 kts | 115° |
| 2026-04-25 10:33 | 38.93890 | 56.52105 | 38927 ft | 539 kts | 115° |
| 2026-04-25 10:34 | 38.91411 | 56.61168 | 38931 ft | 539 kts | 115° |
| 2026-04-25 10:34 | 38.88898 | 56.70269 | 38928 ft | 540 kts | 115° |
| 2026-04-25 10:35 | 38.86370 | 56.79373 | 38926 ft | 541 kts | 116° |
| 2026-04-25 10:35 | 38.83834 | 56.88474 | 38928 ft | 541 kts | 116° |
| 2026-04-25 10:36 | 38.81289 | 56.97569 | 38913 ft | 542 kts | 116° |
| 2026-04-25 10:36 | 38.78754 | 57.06605 | 38916 ft | 542 kts | 116° |
| 2026-04-25 10:37 | 38.76192 | 57.15704 | 38927 ft | 542 kts | 116° |
| 2026-04-25 10:37 | 38.73621 | 57.24802 | 38918 ft | 543 kts | 116° |
| 2026-04-25 10:38 | 38.71041 | 57.33901 | 38914 ft | 543 kts | 116° |
| 2026-04-25 10:38 | 38.68453 | 57.42997 | 38912 ft | 544 kts | 116° |
| 2026-04-25 10:39 | 38.65856 | 57.52091 | 38906 ft | 544 kts | 116° |
| 2026-04-25 10:39 | 38.63246 | 57.61203 | 38895 ft | 544 kts | 116° |
| 2026-04-25 10:40 | 38.60594 | 57.70266 | 38908 ft | 543 kts | 118° |
| 2026-04-25 10:40 | 38.57547 | 57.79008 | 38902 ft | 541 kts | 121° |
| 2026-04-25 10:41 | 38.54365 | 57.87728 | 38901 ft | 541 kts | 121° |
| 2026-04-25 10:41 | 38.51232 | 57.96472 | 38902 ft | 542 kts | 120° |
| 2026-04-25 10:42 | 38.48127 | 58.05258 | 38903 ft | 543 kts | 120° |
| 2026-04-25 10:42 | 38.45023 | 58.14062 | 38902 ft | 543 kts | 120° |
| 2026-04-25 10:43 | 38.41911 | 58.22860 | 38887 ft | 543 kts | 120° |
| 2026-04-25 10:43 | 38.39289 | 58.31975 | 38899 ft | 552 kts | 110° |
| 2026-04-25 10:44 | 38.37317 | 58.41454 | 38900 ft | 554 kts | 109° |
| 2026-04-25 10:44 | 38.35455 | 58.50925 | 38899 ft | 554 kts | 108° |
| 2026-04-25 10:45 | 38.33570 | 58.60465 | 38882 ft | 555 kts | 109° |
| 2026-04-25 10:45 | 38.31659 | 58.69997 | 38897 ft | 555 kts | 109° |
| 2026-04-25 10:46 | 38.29727 | 58.79547 | 38893 ft | 556 kts | 109° |
| 2026-04-25 10:46 | 38.27789 | 58.89075 | 38894 ft | 556 kts | 109° |
| 2026-04-25 10:47 | 38.25858 | 58.98530 | 38894 ft | 555 kts | 109° |
| 2026-04-25 10:47 | 38.23906 | 59.08049 | 38888 ft | 556 kts | 109° |
| 2026-04-25 10:48 | 38.21941 | 59.17587 | 38884 ft | 556 kts | 109° |
| 2026-04-25 10:48 | 38.19970 | 59.27113 | 38887 ft | 556 kts | 109° |
| 2026-04-25 10:49 | 38.18006 | 59.36561 | 38896 ft | 556 kts | 109° |
| 2026-04-25 10:49 | 38.16022 | 59.46066 | 38882 ft | 557 kts | 109° |
| 2026-04-25 10:50 | 38.14027 | 59.55580 | 38886 ft | 557 kts | 109° |
| 2026-04-25 10:50 | 38.12025 | 59.65088 | 38887 ft | 557 kts | 109° |
| 2026-04-25 10:51 | 38.10015 | 59.74592 | 38885 ft | 557 kts | 109° |
| 2026-04-25 10:51 | 38.07995 | 59.84101 | 38874 ft | 557 kts | 109° |
| 2026-04-25 10:52 | 38.05975 | 59.93563 | 38888 ft | 559 kts | 109° |
| 2026-04-25 10:52 | 38.03934 | 60.03087 | 38883 ft | 560 kts | 109° |
| 2026-04-25 10:53 | 38.01822 | 60.12590 | 38883 ft | 557 kts | 114° |